ADDS METAR Data INFO
IDs: Format: Raw Decoded Include TAF

Data at: 0317 UTC 20 Jul 2018

METAR for:KOPF (Miami/Opa Locka Arpt, FL, US)
Text:KOPF 200253Z 19005KT 10SM FEW039 29/24 A3003 RMK AO2 SLP169 T02890244 53017
Temperature: 28.9°C ( 84°F)
Dewpoint: 24.4°C ( 76°F) [RH = 77%]
Pressure (altimeter):30.03 inches Hg (1017.0 mb) [Sea level pressure: 1016.9 mb]
Winds:from the S (190 degrees) at 6 MPH (5 knots; 2.6 m/s)
Visibility:10 or more sm (16+ km)
Ceiling:at least 12,000 feet AGL
Clouds: few clouds at 3900 feet AGL